Toyomasa Maru — JJ3927 — position and weather

sailwx.info

Track history (hours):
 
Tides and Currents Weather Stations Pressure Air Temp Water Temp Dewpoint Dewpoint Depression Visibility Wind Speed Wind Dir Waves Ship Positions

Toyomasa Maru

Last reported at 2017-Oct-19 14:03 UTC. Time now 2017-Oct-20 05:04 UTC.
Position N 34°55' E 139°29'.

Length 101 m; draft 4.4 m.

Type: Tanker. MMSI: 431300401.

Date/timePositionNaut miles runAvg speedWind from/ knotsBaromVisibWave heightAir tempDewpointWater temp
2017-Oct-19 14:03N 34°55' E 139°29'211.2
2017-Oct-19 13:54N 34°56' E 139°31'512.6
2017-Oct-19 13:29N 34°60' E 139°35'713.7
2017-Oct-19 13:00N 35°04' E 139°41'714.2
2017-Oct-19 12:30N 35°10' E 139°45'613.0
2017-Oct-19 12:00N 35°17' E 139°45'612.9
2017-Oct-19 11:31N 35°23' E 139°42'714.1
2017-Oct-19 11:01N 35°28' E 139°49'713.9
2017-Oct-19 10:30N 35°32' E 139°56'3 0.1
2017-Oct-18 05:21N 35°31' E 139°59'3 0.5
2017-Oct-17 23:29N 35°29' E 140°01'2 0.1
2017-Oct-17 07:06N 35°30' E 139°58'0 0.9
2017-Oct-17 06:57N 35°30' E 139°58'4 9.8
2017-Oct-17 06:31N 35°30' E 139°53'611.4
2017-Oct-17 06:01N 35°30' E 139°46'3 5.2
2017-Oct-17 05:30N 35°29' E 139°43'0 0.0
2017-Oct-17 05:00N 35°29' E 139°43'0 0.0
2017-Oct-17 04:30N 35°29' E 139°43'0 0.0
2017-Oct-17 04:00N 35°29' E 139°43'0 0.0
2017-Oct-17 03:15N 35°29' E 139°43'0 0.0
2017-Oct-17 03:00N 35°29' E 139°43'0 0.0
2017-Oct-17 02:30N 35°29' E 139°43'0 0.0
2017-Oct-17 02:00N 35°29' E 139°43'0 0.0
2017-Oct-17 01:30N 35°29' E 139°43'0 0.0
2017-Oct-17 01:00N 35°29' E 139°43'0 0.0
2017-Oct-17 00:30N 35°29' E 139°43'0 0.0
2017-Oct-17 00:00N 35°29' E 139°43'2 3.3
2017-Oct-16 23:30N 35°28' E 139°42'3 6.8
2017-Oct-16 23:00N 35°26' E 139°46'1 2.5
2017-Oct-16 22:30N 35°24' E 139°45'0 0.0
2017-Oct-16 22:00N 35°24' E 139°45'0 0.0
2017-Oct-16 21:15N 35°24' E 139°45'0 0.2
2017-Oct-16 20:57N 35°24' E 139°45'0 0.1
2017-Oct-16 20:27N 35°24' E 139°45'0 0.0
2017-Oct-16 19:51N 35°24' E 139°45'0 0.1
2017-Oct-16 19:27N 35°24' E 139°45'0 0.0
2017-Oct-16 18:54N 35°24' E 139°45'0 0.0
2017-Oct-16 18:30N 35°24' E 139°45'0 0.0
2017-Oct-16 18:00N 35°24' E 139°45'0 0.0
2017-Oct-16 17:30N 35°24' E 139°45'0 0.0
2017-Oct-16 17:00N 35°24' E 139°45'0 0.0
2017-Oct-16 16:24N 35°24' E 139°45'0 0.0
2017-Oct-16 15:57N 35°24' E 139°45'0 0.0
2017-Oct-16 15:30N 35°24' E 139°45'0 0.0
2017-Oct-16 14:57N 35°24' E 139°45'0 0.0
2017-Oct-16 14:30N 35°24' E 139°45'0 0.0
2017-Oct-16 13:30N 35°24' E 139°45'0 0.1
2017-Oct-16 12:39N 35°24' E 139°45'0 0.0
2017-Oct-16 12:21N 35°24' E 139°45'0 0.0
2017-Oct-16 12:00N 35°24' E 139°45'0 0.3
2017-Oct-16 11:30N 35°25' E 139°45'5 9.7
2017-Oct-16 11:00N 35°28' E 139°50'811.0
2017-Oct-16 10:19N 35°30' E 139°59'2 0.2
2017-Oct-15 22:43N 35°29' E 140°01'1 2.7
2017-Oct-15 22:30N 35°29' E 140°00'2 0.4
2017-Oct-15 17:40N 35°30' E 139°58'0 0.0
2017-Oct-15 16:25N 35°30' E 139°58'0 0.0
2017-Oct-15 09:49N 35°30' E 139°58'0 0.0
2017-Oct-15 09:19N 35°30' E 139°58'0 0.0
2017-Oct-15 05:43N 35°30' E 139°58'0 0.3
2017-Oct-15 05:30N 35°30' E 139°58'3 6.9
2017-Oct-15 05:00N 35°30' E 139°54'510.4
2017-Oct-15 04:30N 35°32' E 139°48'0 0.5
2017-Oct-15 03:58N 35°32' E 139°48'0 0.0
2017-Oct-15 03:28N 35°32' E 139°48'0 0.0
2017-Oct-15 02:58N 35°32' E 139°48'0 0.0
2017-Oct-15 02:22N 35°32' E 139°48'0 0.0
2017-Oct-15 01:53N 35°32' E 139°48'0 0.0
2017-Oct-15 01:30N 35°32' E 139°48'0 0.0
2017-Oct-15 01:00N 35°32' E 139°48'0 0.0
2017-Oct-15 00:30N 35°32' E 139°48'2 4.2
2017-Oct-15 00:00N 35°30' E 139°50'4 7.6
2017-Oct-14 23:30N 35°27' E 139°49'611.6
2017-Oct-14 23:00N 35°22' E 139°45'510.6
2017-Oct-14 22:30N 35°17' E 139°46'510.9
2017-Oct-14 22:00N 35°11' E 139°46'611.4
2017-Oct-14 21:30N 35°06' E 139°45'611.7
2017-Oct-14 21:00N 35°01' E 139°40'612.5
2017-Oct-14 20:30N 34°57' E 139°34'  
2017-Oct-10 07:27N 35°31' E 139°50'0 0.0
2017-Oct-10 06:57N 35°31' E 139°50'0 0.1
2017-Oct-10 06:18N 35°31' E 139°50'1 3.4
2017-Oct-10 06:00N 35°30' E 139°51'610.9
2017-Oct-10 05:27N 35°30' E 139°59'2 0.3
2017-Oct-09 23:48N 35°29' E 140°01'2 5.9
2017-Oct-09 23:30N 35°30' E 139°59'  
Track history (hours):
 
Tides and Currents Weather Stations Pressure Air Temp Water Temp Dewpoint Dewpoint Depression Visibility Wind Speed Wind Dir Waves Ship Positions

Toyomasa Maru

Last reported at 2017-Oct-19 14:03 UTC. Time now 2017-Oct-20 05:04 UTC.
Position N 34°55' E 139°29'.

Length 101 m; draft 4.4 m.

Type: Tanker. MMSI: 431300401.

Date/timePositionNaut miles runAvg speedWind from/ knotsBaromVisibWave heightAir tempDewpointWater temp
2017-Oct-19 14:03N 34°55' E 139°29'211.2
2017-Oct-19 13:54N 34°56' E 139°31'512.6
2017-Oct-19 13:29N 34°60' E 139°35'713.7
2017-Oct-19 13:00N 35°04' E 139°41'714.2
2017-Oct-19 12:30N 35°10' E 139°45'613.0
2017-Oct-19 12:00N 35°17' E 139°45'612.9
2017-Oct-19 11:31N 35°23' E 139°42'714.1
2017-Oct-19 11:01N 35°28' E 139°49'713.9
2017-Oct-19 10:30N 35°32' E 139°56'3 0.1
2017-Oct-18 05:21N 35°31' E 139°59'3 0.5
2017-Oct-17 23:29N 35°29' E 140°01'2 0.1
2017-Oct-17 07:06N 35°30' E 139°58'0 0.9
2017-Oct-17 06:57N 35°30' E 139°58'4 9.8
2017-Oct-17 06:31N 35°30' E 139°53'611.4
2017-Oct-17 06:01N 35°30' E 139°46'3 5.2
2017-Oct-17 05:30N 35°29' E 139°43'0 0.0
2017-Oct-17 05:00N 35°29' E 139°43'0 0.0
2017-Oct-17 04:30N 35°29' E 139°43'0 0.0
2017-Oct-17 04:00N 35°29' E 139°43'0 0.0
2017-Oct-17 03:15N 35°29' E 139°43'0 0.0
2017-Oct-17 03:00N 35°29' E 139°43'0 0.0
2017-Oct-17 02:30N 35°29' E 139°43'0 0.0
2017-Oct-17 02:00N 35°29' E 139°43'0 0.0
2017-Oct-17 01:30N 35°29' E 139°43'0 0.0
2017-Oct-17 01:00N 35°29' E 139°43'0 0.0
2017-Oct-17 00:30N 35°29' E 139°43'0 0.0
2017-Oct-17 00:00N 35°29' E 139°43'2 3.3
2017-Oct-16 23:30N 35°28' E 139°42'3 6.8
2017-Oct-16 23:00N 35°26' E 139°46'1 2.5
2017-Oct-16 22:30N 35°24' E 139°45'0 0.0
2017-Oct-16 22:00N 35°24' E 139°45'0 0.0
2017-Oct-16 21:15N 35°24' E 139°45'0 0.2
2017-Oct-16 20:57N 35°24' E 139°45'0 0.1
2017-Oct-16 20:27N 35°24' E 139°45'0 0.0
2017-Oct-16 19:51N 35°24' E 139°45'0 0.1
2017-Oct-16 19:27N 35°24' E 139°45'0 0.0
2017-Oct-16 18:54N 35°24' E 139°45'0 0.0
2017-Oct-16 18:30N 35°24' E 139°45'0 0.0
2017-Oct-16 18:00N 35°24' E 139°45'0 0.0
2017-Oct-16 17:30N 35°24' E 139°45'0 0.0
2017-Oct-16 17:00N 35°24' E 139°45'0 0.0
2017-Oct-16 16:24N 35°24' E 139°45'0 0.0
2017-Oct-16 15:57N 35°24' E 139°45'0 0.0
2017-Oct-16 15:30N 35°24' E 139°45'0 0.0
2017-Oct-16 14:57N 35°24' E 139°45'0 0.0
2017-Oct-16 14:30N 35°24' E 139°45'0 0.0
2017-Oct-16 13:30N 35°24' E 139°45'0 0.1
2017-Oct-16 12:39N 35°24' E 139°45'0 0.0
2017-Oct-16 12:21N 35°24' E 139°45'0 0.0
2017-Oct-16 12:00N 35°24' E 139°45'0 0.3
2017-Oct-16 11:30N 35°25' E 139°45'5 9.7
2017-Oct-16 11:00N 35°28' E 139°50'811.0
2017-Oct-16 10:19N 35°30' E 139°59'2 0.2
2017-Oct-15 22:43N 35°29' E 140°01'1 2.7
2017-Oct-15 22:30N 35°29' E 140°00'2 0.4
2017-Oct-15 17:40N 35°30' E 139°58'0 0.0
2017-Oct-15 16:25N 35°30' E 139°58'0 0.0
2017-Oct-15 09:49N 35°30' E 139°58'0 0.0
2017-Oct-15 09:19N 35°30' E 139°58'0 0.0
2017-Oct-15 05:43N 35°30' E 139°58'0 0.3
2017-Oct-15 05:30N 35°30' E 139°58'3 6.9
2017-Oct-15 05:00N 35°30' E 139°54'510.4
2017-Oct-15 04:30N 35°32' E 139°48'0 0.5
2017-Oct-15 03:58N 35°32' E 139°48'0 0.0
2017-Oct-15 03:28N 35°32' E 139°48'0 0.0
2017-Oct-15 02:58N 35°32' E 139°48'0 0.0
2017-Oct-15 02:22N 35°32' E 139°48'0 0.0
2017-Oct-15 01:53N 35°32' E 139°48'0 0.0
2017-Oct-15 01:30N 35°32' E 139°48'0 0.0
2017-Oct-15 01:00N 35°32' E 139°48'0 0.0
2017-Oct-15 00:30N 35°32' E 139°48'2 4.2
2017-Oct-15 00:00N 35°30' E 139°50'4 7.6
2017-Oct-14 23:30N 35°27' E 139°49'611.6
2017-Oct-14 23:00N 35°22' E 139°45'510.6
2017-Oct-14 22:30N 35°17' E 139°46'510.9
2017-Oct-14 22:00N 35°11' E 139°46'611.4
2017-Oct-14 21:30N 35°06' E 139°45'611.7
2017-Oct-14 21:00N 35°01' E 139°40'612.5
2017-Oct-14 20:30N 34°57' E 139°34'  
2017-Oct-10 07:27N 35°31' E 139°50'0 0.0
2017-Oct-10 06:57N 35°31' E 139°50'0 0.1
2017-Oct-10 06:18N 35°31' E 139°50'1 3.4
2017-Oct-10 06:00N 35°30' E 139°51'610.9
2017-Oct-10 05:27N 35°30' E 139°59'2 0.3
2017-Oct-09 23:48N 35°29' E 140°01'2 5.9
2017-Oct-09 23:30N 35°30' E 139°59'  

Dump ship's entire track history